Карточка аэропорта UOOO

Внимание!
Информация на этой странице в стадии наполнения.
Если вы не увидели какой-то информации, или заметили неточность - пожалуйста сообщите нам!
Спасибо!
Команда RU-STAFF
Название аэропортаАлыкель
Название аэропорта (англ.)Alykel
Превышение574 ft. (175 m.)
Координаты69°19.02', 87°19.02'
Высота перехода1200m
Эшелон переходаQFE>744:FL60;744>QFE>717:FL70;717>QFE:FL80
Коды ответчика5401-5427
Зона ОрВДКрасноярск РПИ (UNKL)
Данные METARUOOO 251800Z 19013G18MPS 0500 0400SE R19/1400N -SN BLSN BKN035 M17/M20 Q1027 R19/810360 NOSIG RMK QFE754/1005
Проноз погоды (TAF)UOOO 251657Z 2518/2618 18015G25MPS 0550 -SN BLSN BKN016 TEMPO 2518/2524 0250 -SN BLSN BKN011 BECMG 2600/2604 0300 SN BLSN TEMPO 2604/2618 0700 SN BLSN
NOTAMshow/hide NOTAM
AWOS   TABLE

Информация о ВПП

ВПП Длина ВПП (м.) Покрытие Курс ВПП Частота ILS
193430Бетон193110.3
013430Бетон13109.5

Диспетчерские позиции

Позывной Наименование органа УВД Частота
UOOO_R_APPНорильск - Круг120.400
UOOO_GNDНорильск - Руление121.700
UOOO_TWRНорильск - Старт118.300



Спутниковое изображение